sensor_id;sensor_type;location;lat;lon;timestamp;temperature;humidity
11009;DHT22;5557;51.670;7.788;2022-11-15T00:01:09;8.50;79.80
11009;DHT22;5557;51.670;7.788;2022-11-15T00:03:36;8.60;79.90
11009;DHT22;5557;51.670;7.788;2022-11-15T00:06:04;8.60;81.70
11009;DHT22;5557;51.670;7.788;2022-11-15T00:08:32;8.60;83.00
11009;DHT22;5557;51.670;7.788;2022-11-15T00:11:01;8.70;84.70
11009;DHT22;5557;51.670;7.788;2022-11-15T00:13:29;8.60;86.30
11009;DHT22;5557;51.670;7.788;2022-11-15T00:15:58;8.60;87.80
11009;DHT22;5557;51.670;7.788;2022-11-15T00:18:26;8.70;90.00
11009;DHT22;5557;51.670;7.788;2022-11-15T00:20:53;8.70;91.00
11009;DHT22;5557;51.670;7.788;2022-11-15T00:23:20;8.70;91.10
11009;DHT22;5557;51.670;7.788;2022-11-15T00:25:47;8.70;91.20
11009;DHT22;5557;51.670;7.788;2022-11-15T00:28:15;8.80;91.80
11009;DHT22;5557;51.670;7.788;2022-11-15T00:30:42;8.80;92.00
11009;DHT22;5557;51.670;7.788;2022-11-15T00:33:09;8.90;92.50
11009;DHT22;5557;51.670;7.788;2022-11-15T00:35:37;8.90;92.60
11009;DHT22;5557;51.670;7.788;2022-11-15T00:38:04;9.00;92.70
11009;DHT22;5557;51.670;7.788;2022-11-15T00:40:33;9.00;93.60
11009;DHT22;5557;51.670;7.788;2022-11-15T00:43:01;9.00;93.70
11009;DHT22;5557;51.670;7.788;2022-11-15T00:45:27;9.00;94.20
11009;DHT22;5557;51.670;7.788;2022-11-15T00:47:54;8.90;94.60
11009;DHT22;5557;51.670;7.788;2022-11-15T00:50:21;8.90;95.50
11009;DHT22;5557;51.670;7.788;2022-11-15T00:52:48;8.90;95.80
11009;DHT22;5557;51.670;7.788;2022-11-15T00:55:17;8.80;96.70
11009;DHT22;5557;51.670;7.788;2022-11-15T00:57:45;8.80;97.50
11009;DHT22;5557;51.670;7.788;2022-11-15T01:00:13;8.80;98.00
11009;DHT22;5557;51.670;7.788;2022-11-15T01:02:40;8.80;99.00
11009;DHT22;5557;51.670;7.788;2022-11-15T01:05:08;8.80;99.30
11009;DHT22;5557;51.670;7.788;2022-11-15T01:07:35;8.90;99.50
11009;DHT22;5557;51.670;7.788;2022-11-15T01:10:03;9.00;99.50
11009;DHT22;5557;51.670;7.788;2022-11-15T01:12:31;9.10;99.30
11009;DHT22;5557;51.670;7.788;2022-11-15T01:14:58;9.10;98.90
11009;DHT22;5557;51.670;7.788;2022-11-15T01:17:25;9.10;98.50
11009;DHT22;5557;51.670;7.788;2022-11-15T01:19:53;9.20;98.30
11009;DHT22;5557;51.670;7.788;2022-11-15T01:22:20;9.20;98.80
11009;DHT22;5557;51.670;7.788;2022-11-15T01:24:48;9.20;98.90
11009;DHT22;5557;51.670;7.788;2022-11-15T01:27:15;9.30;98.70
11009;DHT22;5557;51.670;7.788;2022-11-15T01:29:43;9.30;98.40
11009;DHT22;5557;51.670;7.788;2022-11-15T01:32:10;9.40;98.60
11009;DHT22;5557;51.670;7.788;2022-11-15T01:34:37;9.40;98.50
11009;DHT22;5557;51.670;7.788;2022-11-15T01:37:04;9.50;99.40
11009;DHT22;5557;51.670;7.788;2022-11-15T01:39:31;9.60;99.80
11009;DHT22;5557;51.670;7.788;2022-11-15T01:41:58;9.70;99.90
11009;DHT22;5557;51.670;7.788;2022-11-15T01:44:38;9.80;99.90
11009;DHT22;5557;51.670;7.788;2022-11-15T01:47:28;9.80;99.90
11009;DHT22;5557;51.670;7.788;2022-11-15T01:50:06;9.90;99.70
11009;DHT22;5557;51.670;7.788;2022-11-15T01:52:35;9.90;99.40
11009;DHT22;5557;51.670;7.788;2022-11-15T01:55:11;9.90;99.90
11009;DHT22;5557;51.670;7.788;2022-11-15T01:57:41;10.00;99.90
11009;DHT22;5557;51.670;7.788;2022-11-15T02:00:10;10.10;99.90
11009;DHT22;5557;51.670;7.788;2022-11-15T02:02:37;10.20;99.90
11009;DHT22;5557;51.670;7.788;2022-11-15T02:05:06;10.40;99.90
11009;DHT22;5557;51.670;7.788;2022-11-15T02:07:35;10.50;99.90
11009;DHT22;5557;51.670;7.788;2022-11-15T02:10:11;10.70;99.90
11009;DHT22;5557;51.670;7.788;2022-11-15T02:12:39;10.90;99.90
11009;DHT22;5557;51.670;7.788;2022-11-15T02:15:08;11.20;99.90
11009;DHT22;5557;51.670;7.788;2022-11-15T02:18:11;11.30;99.90
11009;DHT22;5557;51.670;7.788;2022-11-15T02:27:59;11.70;99.80
11009;DHT22;5557;51.670;7.788;2022-11-15T02:34:11;11.60;99.20
11009;DHT22;5557;51.670;7.788;2022-11-15T02:38:29;11.60;99.90
11009;DHT22;5557;51.670;7.788;2022-11-15T02:40:26;11.60;99.90
11009;DHT22;5557;51.670;7.788;2022-11-15T02:43:07;11.70;99.80
11009;DHT22;5557;51.670;7.788;2022-11-15T02:49:35;11.90;98.40
11009;DHT22;5557;51.670;7.788;2022-11-15T02:52:03;11.90;97.80
11009;DHT22;5557;51.670;7.788;2022-11-15T02:54:33;11.90;97.60
11009;DHT22;5557;51.670;7.788;2022-11-15T02:57:05;11.90;97.70
11009;DHT22;5557;51.670;7.788;2022-11-15T02:59:56;11.90;97.40
11009;DHT22;5557;51.670;7.788;2022-11-15T03:06:40;12.00;97.50
11009;DHT22;5557;51.670;7.788;2022-11-15T03:09:33;12.00;96.90
11009;DHT22;5557;51.670;7.788;2022-11-15T03:12:08;12.00;96.60
11009;DHT22;5557;51.670;7.788;2022-11-15T03:15:01;12.00;96.80
11009;DHT22;5557;51.670;7.788;2022-11-15T03:17:34;12.10;96.40
11009;DHT22;5557;51.670;7.788;2022-11-15T03:20:05;12.10;96.20
11009;DHT22;5557;51.670;7.788;2022-11-15T03:22:38;12.10;96.10
11009;DHT22;5557;51.670;7.788;2022-11-15T03:25:09;12.10;95.90
11009;DHT22;5557;51.670;7.788;2022-11-15T03:27:44;12.10;95.90
11009;DHT22;5557;51.670;7.788;2022-11-15T03:30:13;12.10;96.30
11009;DHT22;5557;51.670;7.788;2022-11-15T03:32:47;12.10;96.00
11009;DHT22;5557;51.670;7.788;2022-11-15T03:35:22;12.10;96.40
11009;DHT22;5557;51.670;7.788;2022-11-15T03:40:43;12.10;96.30
11009;DHT22;5557;51.670;7.788;2022-11-15T03:46:23;12.00;96.70
11009;DHT22;5557;51.670;7.788;2022-11-15T03:49:00;12.00;96.80
11009;DHT22;5557;51.670;7.788;2022-11-15T03:51:29;12.00;97.00
11009;DHT22;5557;51.670;7.788;2022-11-15T03:53:56;12.00;97.10
11009;DHT22;5557;51.670;7.788;2022-11-15T03:56:23;12.00;97.50
11009;DHT22;5557;51.670;7.788;2022-11-15T03:58:50;12.00;97.60
11009;DHT22;5557;51.670;7.788;2022-11-15T04:01:17;12.00;97.80
11009;DHT22;5557;51.670;7.788;2022-11-15T04:03:44;12.00;97.80
11009;DHT22;5557;51.670;7.788;2022-11-15T04:06:11;12.00;97.90
11009;DHT22;5557;51.670;7.788;2022-11-15T04:08:38;11.90;98.00
11009;DHT22;5557;51.670;7.788;2022-11-15T04:11:05;11.90;98.20
11009;DHT22;5557;51.670;7.788;2022-11-15T04:13:32;11.90;98.40
11009;DHT22;5557;51.670;7.788;2022-11-15T04:15:59;11.90;98.80
11009;DHT22;5557;51.670;7.788;2022-11-15T04:18:26;11.90;98.80
11009;DHT22;5557;51.670;7.788;2022-11-15T04:20:53;11.90;98.80
11009;DHT22;5557;51.670;7.788;2022-11-15T04:23:38;11.90;98.60
11009;DHT22;5557;51.670;7.788;2022-11-15T04:26:24;11.90;98.50
11009;DHT22;5557;51.670;7.788;2022-11-15T04:28:51;11.90;98.80
11009;DHT22;5557;51.670;7.788;2022-11-15T04:31:37;11.90;99.10
11009;DHT22;5557;51.670;7.788;2022-11-15T04:34:04;11.90;99.20
11009;DHT22;5557;51.670;7.788;2022-11-15T04:36:31;12.00;99.70
11009;DHT22;5557;51.670;7.788;2022-11-15T04:39:17;12.10;99.50
11009;DHT22;5557;51.670;7.788;2022-11-15T04:41:44;12.10;99.10
11009;DHT22;5557;51.670;7.788;2022-11-15T04:44:11;12.20;98.50
11009;DHT22;5557;51.670;7.788;2022-11-15T04:46:38;12.20;98.20
11009;DHT22;5557;51.670;7.788;2022-11-15T04:49:05;12.20;98.00
11009;DHT22;5557;51.670;7.788;2022-11-15T04:51:32;12.30;97.70
11009;DHT22;5557;51.670;7.788;2022-11-15T04:53:59;12.30;98.00
11009;DHT22;5557;51.670;7.788;2022-11-15T04:56:26;12.20;97.90
11009;DHT22;5557;51.670;7.788;2022-11-15T04:58:53;12.20;98.00
11009;DHT22;5557;51.670;7.788;2022-11-15T05:01:20;12.20;98.00
11009;DHT22;5557;51.670;7.788;2022-11-15T05:03:47;12.10;98.50
11009;DHT22;5557;51.670;7.788;2022-11-15T05:06:32;12.10;99.20
11009;DHT22;5557;51.670;7.788;2022-11-15T05:08:59;12.10;99.70
11009;DHT22;5557;51.670;7.788;2022-11-15T05:11:26;12.20;99.60
11009;DHT22;5557;51.670;7.788;2022-11-15T05:13:54;12.20;99.50
11009;DHT22;5557;51.670;7.788;2022-11-15T05:16:21;12.20;99.30
11009;DHT22;5557;51.670;7.788;2022-11-15T05:18:54;12.20;99.10
11009;DHT22;5557;51.670;7.788;2022-11-15T05:21:21;12.20;99.40
11009;DHT22;5557;51.670;7.788;2022-11-15T05:23:48;12.20;99.20
11009;DHT22;5557;51.670;7.788;2022-11-15T05:26:16;12.20;99.30
11009;DHT22;5557;51.670;7.788;2022-11-15T05:28:44;12.20;99.40
11009;DHT22;5557;51.670;7.788;2022-11-15T05:31:13;12.20;99.70
11009;DHT22;5557;51.670;7.788;2022-11-15T05:33:42;12.20;99.70
11009;DHT22;5557;51.670;7.788;2022-11-15T05:39:06;12.20;99.50
11009;DHT22;5557;51.670;7.788;2022-11-15T05:41:48;12.20;99.20
11009;DHT22;5557;51.670;7.788;2022-11-15T05:44:18;12.20;99.30
11009;DHT22;5557;51.670;7.788;2022-11-15T05:46:47;12.20;99.50
11009;DHT22;5557;51.670;7.788;2022-11-15T05:49:17;12.20;99.60
11009;DHT22;5557;51.670;7.788;2022-11-15T05:51:46;12.10;99.70
11009;DHT22;5557;51.670;7.788;2022-11-15T05:54:14;12.10;99.70
11009;DHT22;5557;51.670;7.788;2022-11-15T05:56:43;12.20;99.90
11009;DHT22;5557;51.670;7.788;2022-11-15T05:59:11;12.20;99.90
11009;DHT22;5557;51.670;7.788;2022-11-15T06:01:38;12.20;99.50
11009;DHT22;5557;51.670;7.788;2022-11-15T06:04:05;12.20;99.30
11009;DHT22;5557;51.670;7.788;2022-11-15T06:06:32;12.20;99.60
11009;DHT22;5557;51.670;7.788;2022-11-15T06:08:59;12.30;99.10
11009;DHT22;5557;51.670;7.788;2022-11-15T06:11:27;12.30;98.60
11009;DHT22;5557;51.670;7.788;2022-11-15T06:13:54;12.30;98.60
11009;DHT22;5557;51.670;7.788;2022-11-15T06:16:22;12.30;98.60
11009;DHT22;5557;51.670;7.788;2022-11-15T06:18:49;12.30;98.60
11009;DHT22;5557;51.670;7.788;2022-11-15T06:21:16;12.30;98.60
11009;DHT22;5557;51.670;7.788;2022-11-15T06:23:43;12.30;98.30
11009;DHT22;5557;51.670;7.788;2022-11-15T06:26:10;12.30;97.90
11009;DHT22;5557;51.670;7.788;2022-11-15T06:28:37;12.40;97.40
11009;DHT22;5557;51.670;7.788;2022-11-15T06:31:05;12.50;96.80
11009;DHT22;5557;51.670;7.788;2022-11-15T06:33:32;12.50;96.70
11009;DHT22;5557;51.670;7.788;2022-11-15T06:36:04;12.60;96.30
11009;DHT22;5557;51.670;7.788;2022-11-15T06:38:32;12.60;95.90
11009;DHT22;5557;51.670;7.788;2022-11-15T06:41:07;12.70;95.40
11009;DHT22;5557;51.670;7.788;2022-11-15T06:43:35;12.70;95.20
11009;DHT22;5557;51.670;7.788;2022-11-15T06:46:03;12.70;95.20
11009;DHT22;5557;51.670;7.788;2022-11-15T06:48:32;12.60;95.40
11009;DHT22;5557;51.670;7.788;2022-11-15T06:51:00;12.50;95.90
11009;DHT22;5557;51.670;7.788;2022-11-15T06:53:29;12.40;96.60
11009;DHT22;5557;51.670;7.788;2022-11-15T06:56:04;12.40;97.20
11009;DHT22;5557;51.670;7.788;2022-11-15T06:58:32;12.40;97.50
11009;DHT22;5557;51.670;7.788;2022-11-15T07:01:01;12.40;97.60
11009;DHT22;5557;51.670;7.788;2022-11-15T07:03:29;12.40;97.50
11009;DHT22;5557;51.670;7.788;2022-11-15T07:05:57;12.40;97.30
11009;DHT22;5557;51.670;7.788;2022-11-15T07:08:32;12.50;96.80
11009;DHT22;5557;51.670;7.788;2022-11-15T07:11:01;12.50;96.30
11009;DHT22;5557;51.670;7.788;2022-11-15T07:13:30;12.50;96.20
11009;DHT22;5557;51.670;7.788;2022-11-15T07:16:06;12.50;95.70
11009;DHT22;5557;51.670;7.788;2022-11-15T07:18:38;12.60;95.00
11009;DHT22;5557;51.670;7.788;2022-11-15T07:21:10;12.60;94.80
11009;DHT22;5557;51.670;7.788;2022-11-15T07:23:38;12.60;94.30
11009;DHT22;5557;51.670;7.788;2022-11-15T07:26:07;12.70;94.00
11009;DHT22;5557;51.670;7.788;2022-11-15T07:28:35;12.70;93.60
11009;DHT22;5557;51.670;7.788;2022-11-15T07:31:06;12.70;92.80
11009;DHT22;5557;51.670;7.788;2022-11-15T07:33:35;12.80;92.20
11009;DHT22;5557;51.670;7.788;2022-11-15T07:36:04;12.90;91.50
11009;DHT22;5557;51.670;7.788;2022-11-15T07:38:33;12.90;90.90
11009;DHT22;5557;51.670;7.788;2022-11-15T07:41:07;13.00;90.40
11009;DHT22;5557;51.670;7.788;2022-11-15T07:43:34;13.20;90.30
11009;DHT22;5557;51.670;7.788;2022-11-15T07:46:06;13.60;79.40
11009;DHT22;5557;51.670;7.788;2022-11-15T07:48:37;13.90;71.80
11009;DHT22;5557;51.670;7.788;2022-11-15T07:51:12;14.10;67.70
11009;DHT22;5557;51.670;7.788;2022-11-15T07:53:41;14.30;64.90
11009;DHT22;5557;51.670;7.788;2022-11-15T07:56:08;14.60;58.90
11009;DHT22;5557;51.670;7.788;2022-11-15T07:58:35;14.80;47.30
11009;DHT22;5557;51.670;7.788;2022-11-15T08:01:07;14.80;46.90
11009;DHT22;5557;51.670;7.788;2022-11-15T08:03:35;14.70;47.60
11009;DHT22;5557;51.670;7.788;2022-11-15T08:06:03;14.50;50.20
11009;DHT22;5557;51.670;7.788;2022-11-15T08:08:30;14.40;47.70
11009;DHT22;5557;51.670;7.788;2022-11-15T08:11:00;14.20;49.90
11009;DHT22;5557;51.670;7.788;2022-11-15T08:13:28;14.20;49.90
11009;DHT22;5557;51.670;7.788;2022-11-15T08:16:02;14.20;49.70
11009;DHT22;5557;51.670;7.788;2022-11-15T08:18:32;14.20;47.50
11009;DHT22;5557;51.670;7.788;2022-11-15T08:21:00;14.20;45.90
11009;DHT22;5557;51.670;7.788;2022-11-15T08:23:27;14.30;41.30
11009;DHT22;5557;51.670;7.788;2022-11-15T08:26:02;14.30;39.70
11009;DHT22;5557;51.670;7.788;2022-11-15T08:28:31;14.40;40.50
11009;DHT22;5557;51.670;7.788;2022-11-15T08:30:58;14.40;35.70
11009;DHT22;5557;51.670;7.788;2022-11-15T08:33:25;14.40;35.80
11009;DHT22;5557;51.670;7.788;2022-11-15T08:35:52;14.50;32.10
11009;DHT22;5557;51.670;7.788;2022-11-15T08:38:22;14.60;29.50
11009;DHT22;5557;51.670;7.788;2022-11-15T08:40:52;14.60;29.50
11009;DHT22;5557;51.670;7.788;2022-11-15T08:43:19;14.70;27.40
11009;DHT22;5557;51.670;7.788;2022-11-15T08:45:46;14.90;24.90
11009;DHT22;5557;51.670;7.788;2022-11-15T08:48:13;15.40;17.20
11009;DHT22;5557;51.670;7.788;2022-11-15T08:50:40;16.00;9.70
11009;DHT22;5557;51.670;7.788;2022-11-15T08:53:08;16.20;4.50
11009;DHT22;5557;51.670;7.788;2022-11-15T08:55:39;16.10;4.40
11009;DHT22;5557;51.670;7.788;2022-11-15T08:58:07;15.80;5.70
11009;DHT22;5557;51.670;7.788;2022-11-15T09:00:34;15.70;8.20
11009;DHT22;5557;51.670;7.788;2022-11-15T09:03:04;15.50;10.30
11009;DHT22;5557;51.670;7.788;2022-11-15T09:05:32;15.30;9.10
11009;DHT22;5557;51.670;7.788;2022-11-15T09:07:59;15.40;11.00
11009;DHT22;5557;51.670;7.788;2022-11-15T09:10:27;15.60;4.60
11009;DHT22;5557;51.670;7.788;2022-11-15T09:12:56;15.60;4.00
11009;DHT22;5557;51.670;7.788;2022-11-15T09:15:23;15.50;4.60
11009;DHT22;5557;51.670;7.788;2022-11-15T09:17:50;15.40;7.70
11009;DHT22;5557;51.670;7.788;2022-11-15T09:20:18;15.20;5.90
11009;DHT22;5557;51.670;7.788;2022-11-15T09:22:45;15.10;6.80
11009;DHT22;5557;51.670;7.788;2022-11-15T09:25:12;15.20;7.90
11009;DHT22;5557;51.670;7.788;2022-11-15T09:27:38;15.30;7.50
11009;DHT22;5557;51.670;7.788;2022-11-15T09:30:06;15.30;7.20
11009;DHT22;5557;51.670;7.788;2022-11-15T09:32:33;15.30;5.50
11009;DHT22;5557;51.670;7.788;2022-11-15T09:35:05;15.20;4.70
11009;DHT22;5557;51.670;7.788;2022-11-15T09:37:32;15.20;5.00
11009;DHT22;5557;51.670;7.788;2022-11-15T09:39:59;15.10;3.60
11009;DHT22;5557;51.670;7.788;2022-11-15T09:44:31;15.00;3.60
11009;DHT22;5557;51.670;7.788;2022-11-15T09:49:00;15.00;3.60
11009;DHT22;5557;51.670;7.788;2022-11-15T09:51:34;15.00;4.10
11009;DHT22;5557;51.670;7.788;2022-11-15T09:54:31;14.90;3.50
11009;DHT22;5557;51.670;7.788;2022-11-15T09:57:42;14.90;2.70
11009;DHT22;5557;51.670;7.788;2022-11-15T10:03:27;15.10;1.50
11009;DHT22;5557;51.670;7.788;2022-11-15T10:05:59;15.10;1.00
11009;DHT22;5557;51.670;7.788;2022-11-15T10:11:28;14.90;1.00
11009;DHT22;5557;51.670;7.788;2022-11-15T10:14:25;15.00;1.00
11009;DHT22;5557;51.670;7.788;2022-11-15T10:17:19;15.00;1.00
11009;DHT22;5557;51.670;7.788;2022-11-15T10:20:11;15.10;1.00
11009;DHT22;5557;51.670;7.788;2022-11-15T10:23:06;15.20;1.00
11009;DHT22;5557;51.670;7.788;2022-11-15T10:25:37;15.30;1.00
11009;DHT22;5557;51.670;7.788;2022-11-15T10:28:15;15.30;1.00
11009;DHT22;5557;51.670;7.788;2022-11-15T10:30:49;15.30;1.00
11009;DHT22;5557;51.670;7.788;2022-11-15T10:33:33;15.20;1.00
11009;DHT22;5557;51.670;7.788;2022-11-15T10:36:21;15.30;1.00
11009;DHT22;5557;51.670;7.788;2022-11-15T10:38:57;15.30;1.00
11009;DHT22;5557;51.670;7.788;2022-11-15T10:41:42;15.30;1.00
11009;DHT22;5557;51.670;7.788;2022-11-15T10:44:17;15.30;1.00
11009;DHT22;5557;51.670;7.788;2022-11-15T10:49:35;15.30;1.00
11009;DHT22;5557;51.670;7.788;2022-11-15T10:58:21;15.00;1.00
11009;DHT22;5557;51.670;7.788;2022-11-15T11:00:52;15.00;1.00
11009;DHT22;5557;51.670;7.788;2022-11-15T11:03:38;15.10;1.00
11009;DHT22;5557;51.670;7.788;2022-11-15T11:06:12;15.00;1.00
11009;DHT22;5557;51.670;7.788;2022-11-15T11:08:40;15.00;1.00
11009;DHT22;5557;51.670;7.788;2022-11-15T11:11:07;15.00;1.00
11009;DHT22;5557;51.670;7.788;2022-11-15T11:13:37;15.00;1.00
11009;DHT22;5557;51.670;7.788;2022-11-15T11:16:19;15.00;1.00
11009;DHT22;5557;51.670;7.788;2022-11-15T11:20:30;15.00;1.00
11009;DHT22;5557;51.670;7.788;2022-11-15T11:23:36;14.90;1.00
11009;DHT22;5557;51.670;7.788;2022-11-15T11:25:28;14.80;1.00
11009;DHT22;5557;51.670;7.788;2022-11-15T11:40:29;14.80;1.00
11009;DHT22;5557;51.670;7.788;2022-11-15T11:46:13;14.80;1.00
11009;DHT22;5557;51.670;7.788;2022-11-15T11:48:44;14.80;1.00
11009;DHT22;5557;51.670;7.788;2022-11-15T11:51:24;14.80;1.00
11009;DHT22;5557;51.670;7.788;2022-11-15T11:56:50;14.80;1.00
11009;DHT22;5557;51.670;7.788;2022-11-15T11:59:42;14.80;1.00
11009;DHT22;5557;51.670;7.788;2022-11-15T12:02:34;14.80;1.00
11009;DHT22;5557;51.670;7.788;2022-11-15T12:05:26;14.80;1.00
11009;DHT22;5557;51.670;7.788;2022-11-15T12:08:06;14.80;1.00
11009;DHT22;5557;51.670;7.788;2022-11-15T12:11:07;14.90;1.00
11009;DHT22;5557;51.670;7.788;2022-11-15T12:13:36;15.00;1.00
11009;DHT22;5557;51.670;7.788;2022-11-15T12:16:26;15.00;1.00
11009;DHT22;5557;51.670;7.788;2022-11-15T12:18:59;15.10;1.00
11009;DHT22;5557;51.670;7.788;2022-11-15T12:25:18;15.00;1.00
11009;DHT22;5557;51.670;7.788;2022-11-15T12:27:54;14.90;1.00
11009;DHT22;5557;51.670;7.788;2022-11-15T12:30:24;15.00;1.00
11009;DHT22;5557;51.670;7.788;2022-11-15T12:32:58;14.90;1.00
11009;DHT22;5557;51.670;7.788;2022-11-15T12:35:39;15.00;1.00
11009;DHT22;5557;51.670;7.788;2022-11-15T12:38:11;15.00;1.00
11009;DHT22;5557;51.670;7.788;2022-11-15T12:41:18;15.00;1.00
11009;DHT22;5557;51.670;7.788;2022-11-15T12:43:46;15.00;1.00
11009;DHT22;5557;51.670;7.788;2022-11-15T12:46:22;15.10;1.00
11009;DHT22;5557;51.670;7.788;2022-11-15T12:48:53;15.10;1.00
11009;DHT22;5557;51.670;7.788;2022-11-15T12:57:30;15.10;1.00
11009;DHT22;5557;51.670;7.788;2022-11-15T13:00:00;15.10;1.00
11009;DHT22;5557;51.670;7.788;2022-11-15T13:02:43;15.10;1.00
11009;DHT22;5557;51.670;7.788;2022-11-15T13:07:56;15.10;1.00
11009;DHT22;5557;51.670;7.788;2022-11-15T13:10:32;15.10;1.00
11009;DHT22;5557;51.670;7.788;2022-11-15T13:13:06;15.10;1.00
11009;DHT22;5557;51.670;7.788;2022-11-15T13:15:44;15.10;1.00
11009;DHT22;5557;51.670;7.788;2022-11-15T13:18:34;15.20;1.00
11009;DHT22;5557;51.670;7.788;2022-11-15T13:21:04;15.10;1.00
11009;DHT22;5557;51.670;7.788;2022-11-15T13:23:53;15.10;1.00
11009;DHT22;5557;51.670;7.788;2022-11-15T13:26:21;15.10;1.00
11009;DHT22;5557;51.670;7.788;2022-11-15T13:28:49;15.10;1.00
11009;DHT22;5557;51.670;7.788;2022-11-15T13:31:36;15.10;1.00
11009;DHT22;5557;51.670;7.788;2022-11-15T13:34:31;15.10;1.00
11009;DHT22;5557;51.670;7.788;2022-11-15T13:37:37;15.00;1.00
11009;DHT22;5557;51.670;7.788;2022-11-15T13:40:36;15.00;1.00
11009;DHT22;5557;51.670;7.788;2022-11-15T13:43:42;15.00;1.00
11009;DHT22;5557;51.670;7.788;2022-11-15T13:46:20;15.00;1.00
11009;DHT22;5557;51.670;7.788;2022-11-15T13:49:05;15.00;1.00
11009;DHT22;5557;51.670;7.788;2022-11-15T13:51:42;15.00;1.00
11009;DHT22;5557;51.670;7.788;2022-11-15T13:54:30;15.00;1.00
11009;DHT22;5557;51.670;7.788;2022-11-15T13:57:24;15.00;1.00
11009;DHT22;5557;51.670;7.788;2022-11-15T14:03:35;14.90;1.00
11009;DHT22;5557;51.670;7.788;2022-11-15T14:06:10;14.80;1.00
11009;DHT22;5557;51.670;7.788;2022-11-15T14:11:57;14.70;1.00
11009;DHT22;5557;51.670;7.788;2022-11-15T14:14:26;14.80;1.00
11009;DHT22;5557;51.670;7.788;2022-11-15T14:16:58;14.70;1.00
11009;DHT22;5557;51.670;7.788;2022-11-15T14:19:37;14.60;1.00
11009;DHT22;5557;51.670;7.788;2022-11-15T14:22:36;14.60;1.00
11009;DHT22;5557;51.670;7.788;2022-11-15T14:25:19;14.60;1.00
11009;DHT22;5557;51.670;7.788;2022-11-15T14:30:55;14.50;1.00
11009;DHT22;5557;51.670;7.788;2022-11-15T14:33:27;14.40;1.00
11009;DHT22;5557;51.670;7.788;2022-11-15T14:35:57;14.30;1.00
11009;DHT22;5557;51.670;7.788;2022-11-15T14:38:25;14.20;1.00
11009;DHT22;5557;51.670;7.788;2022-11-15T14:40:53;14.20;1.00
11009;DHT22;5557;51.670;7.788;2022-11-15T14:43:21;14.10;1.00
11009;DHT22;5557;51.670;7.788;2022-11-15T14:45:48;14.00;1.00
11009;DHT22;5557;51.670;7.788;2022-11-15T14:48:15;14.00;1.00
11009;DHT22;5557;51.670;7.788;2022-11-15T14:50:43;14.00;1.00
11009;DHT22;5557;51.670;7.788;2022-11-15T14:53:15;13.90;1.00
11009;DHT22;5557;51.670;7.788;2022-11-15T14:55:43;13.90;1.00
11009;DHT22;5557;51.670;7.788;2022-11-15T14:58:10;13.80;1.00
11009;DHT22;5557;51.670;7.788;2022-11-15T15:00:39;13.80;1.00
11009;DHT22;5557;51.670;7.788;2022-11-15T15:03:07;13.80;1.00
11009;DHT22;5557;51.670;7.788;2022-11-15T15:05:39;13.70;1.00
11009;DHT22;5557;51.670;7.788;2022-11-15T15:08:07;13.70;1.00
11009;DHT22;5557;51.670;7.788;2022-11-15T15:10:38;13.60;1.00
11009;DHT22;5557;51.670;7.788;2022-11-15T15:13:18;13.60;1.00
11009;DHT22;5557;51.670;7.788;2022-11-15T15:15:46;13.50;1.00
11009;DHT22;5557;51.670;7.788;2022-11-15T15:18:13;13.50;1.00
11009;DHT22;5557;51.670;7.788;2022-11-15T15:20:43;13.40;1.00
11009;DHT22;5557;51.670;7.788;2022-11-15T15:23:22;13.40;1.00
11009;DHT22;5557;51.670;7.788;2022-11-15T15:25:50;13.30;1.00
11009;DHT22;5557;51.670;7.788;2022-11-15T15:28:19;13.20;1.00
11009;DHT22;5557;51.670;7.788;2022-11-15T15:30:46;13.30;1.00
11009;DHT22;5557;51.670;7.788;2022-11-15T15:33:13;13.20;1.00
11009;DHT22;5557;51.670;7.788;2022-11-15T15:35:40;13.10;1.00
11009;DHT22;5557;51.670;7.788;2022-11-15T15:38:13;13.10;1.00
11009;DHT22;5557;51.670;7.788;2022-11-15T15:40:42;13.10;1.00
11009;DHT22;5557;51.670;7.788;2022-11-15T15:43:09;13.00;1.00
11009;DHT22;5557;51.670;7.788;2022-11-15T15:45:40;12.90;2.10
11009;DHT22;5557;51.670;7.788;2022-11-15T15:48:11;12.90;3.10
11009;DHT22;5557;51.670;7.788;2022-11-15T15:50:39;12.80;3.80
11009;DHT22;5557;51.670;7.788;2022-11-15T15:53:06;12.70;5.40
11009;DHT22;5557;51.670;7.788;2022-11-15T15:55:34;12.70;6.10
11009;DHT22;5557;51.670;7.788;2022-11-15T15:58:02;12.60;7.00
11009;DHT22;5557;51.670;7.788;2022-11-15T16:00:29;12.50;8.20
11009;DHT22;5557;51.670;7.788;2022-11-15T16:02:59;12.50;9.50
11009;DHT22;5557;51.670;7.788;2022-11-15T16:05:26;12.50;10.00
11009;DHT22;5557;51.670;7.788;2022-11-15T16:07:53;12.50;10.10
11009;DHT22;5557;51.670;7.788;2022-11-15T16:10:26;12.50;9.80
11009;DHT22;5557;51.670;7.788;2022-11-15T16:12:54;12.50;10.00
11009;DHT22;5557;51.670;7.788;2022-11-15T16:15:24;12.50;10.80
11009;DHT22;5557;51.670;7.788;2022-11-15T16:17:53;12.50;10.80
11009;DHT22;5557;51.670;7.788;2022-11-15T16:20:38;12.50;10.90
11009;DHT22;5557;51.670;7.788;2022-11-15T16:23:17;12.50;10.80
11009;DHT22;5557;51.670;7.788;2022-11-15T16:25:55;12.50;10.80
11009;DHT22;5557;51.670;7.788;2022-11-15T16:28:28;12.50;10.80
11009;DHT22;5557;51.670;7.788;2022-11-15T16:31:11;12.50;10.90
11009;DHT22;5557;51.670;7.788;2022-11-15T16:33:39;12.40;11.40
11009;DHT22;5557;51.670;7.788;2022-11-15T16:36:21;12.40;11.20
11009;DHT22;5557;51.670;7.788;2022-11-15T16:38:55;12.40;11.90
11009;DHT22;5557;51.670;7.788;2022-11-15T16:41:23;12.40;11.80
11009;DHT22;5557;51.670;7.788;2022-11-15T16:43:50;12.40;11.50
11009;DHT22;5557;51.670;7.788;2022-11-15T16:46:25;12.30;12.30
11009;DHT22;5557;51.670;7.788;2022-11-15T16:48:53;12.30;13.80
11009;DHT22;5557;51.670;7.788;2022-11-15T16:51:21;12.30;15.00
11009;DHT22;5557;51.670;7.788;2022-11-15T16:53:48;12.20;16.40
11009;DHT22;5557;51.670;7.788;2022-11-15T16:56:27;12.30;17.60
11009;DHT22;5557;51.670;7.788;2022-11-15T16:58:55;12.20;19.60
11009;DHT22;5557;51.670;7.788;2022-11-15T17:01:30;12.20;18.60
11009;DHT22;5557;51.670;7.788;2022-11-15T17:03:58;12.30;19.50
11009;DHT22;5557;51.670;7.788;2022-11-15T17:06:25;12.30;19.80
11009;DHT22;5557;51.670;7.788;2022-11-15T17:08:53;12.20;21.40
11009;DHT22;5557;51.670;7.788;2022-11-15T17:11:21;12.30;22.00
11009;DHT22;5557;51.670;7.788;2022-11-15T17:13:48;12.20;22.90
11009;DHT22;5557;51.670;7.788;2022-11-15T17:16:17;12.20;23.90
11009;DHT22;5557;51.670;7.788;2022-11-15T17:18:44;12.10;24.80
11009;DHT22;5557;51.670;7.788;2022-11-15T17:21:16;12.10;25.60
11009;DHT22;5557;51.670;7.788;2022-11-15T17:23:44;12.10;27.00
11009;DHT22;5557;51.670;7.788;2022-11-15T17:26:13;12.10;27.80
11009;DHT22;5557;51.670;7.788;2022-11-15T17:28:56;12.00;27.70
11009;DHT22;5557;51.670;7.788;2022-11-15T17:31:24;12.10;28.60
11009;DHT22;5557;51.670;7.788;2022-11-15T17:33:52;12.10;28.00
11009;DHT22;5557;51.670;7.788;2022-11-15T17:36:19;12.10;28.70
11009;DHT22;5557;51.670;7.788;2022-11-15T17:38:46;12.20;29.30
11009;DHT22;5557;51.670;7.788;2022-11-15T17:41:24;12.20;29.60
11009;DHT22;5557;51.670;7.788;2022-11-15T17:43:51;12.20;29.00
11009;DHT22;5557;51.670;7.788;2022-11-15T17:46:19;12.20;29.10
11009;DHT22;5557;51.670;7.788;2022-11-15T17:48:47;12.20;29.90
11009;DHT22;5557;51.670;7.788;2022-11-15T17:51:17;12.30;29.00
11009;DHT22;5557;51.670;7.788;2022-11-15T17:53:46;12.30;28.90
11009;DHT22;5557;51.670;7.788;2022-11-15T17:56:16;12.40;28.00